Terminal Aerodrome Forecast
Issued by NWS Caribou, ME

Home | Current Version | Previous Version | Text Only | Print | Product List | Glossary On
Versions: 1 2 3 4 5 6 7 8 9 10 11 12 13 14 15 16 17 18 19 20 21 22 23 24 25 26 27 28 29 30 31
000
FTUS41 KCAR 011700
TAFCAR
TAF
KCAR 011740Z 0118/0218 06005KT P6SM BKN020
     FM011900 03005KT P6SM SCT025
     FM020400 VRB03KT 2SM BR SCT025
     FM021200 00000KT P6SM SCT250=

USA.gov is the U.S. government's official web portal to all federal, state and local government web resources and services.